sensor_id;sensor_type;location;lat;lon;timestamp;temperature;humidity
7934;DHT22;4012;48.896;9.192;2023-04-03T00:01:10;4.40;99.90
7934;DHT22;4012;48.896;9.192;2023-04-03T00:03:36;4.40;99.90
7934;DHT22;4012;48.896;9.192;2023-04-03T00:06:03;4.50;99.90
7934;DHT22;4012;48.896;9.192;2023-04-03T00:08:29;4.40;99.90
7934;DHT22;4012;48.896;9.192;2023-04-03T00:10:57;4.40;99.90
7934;DHT22;4012;48.896;9.192;2023-04-03T00:13:23;4.30;99.90
7934;DHT22;4012;48.896;9.192;2023-04-03T00:15:48;4.30;99.90
7934;DHT22;4012;48.896;9.192;2023-04-03T00:18:14;4.30;99.90
7934;DHT22;4012;48.896;9.192;2023-04-03T00:20:40;4.30;99.90
7934;DHT22;4012;48.896;9.192;2023-04-03T00:23:06;4.30;99.90
7934;DHT22;4012;48.896;9.192;2023-04-03T00:25:32;4.20;99.90
7934;DHT22;4012;48.896;9.192;2023-04-03T00:27:57;4.10;99.90
7934;DHT22;4012;48.896;9.192;2023-04-03T00:30:23;4.20;99.90
7934;DHT22;4012;48.896;9.192;2023-04-03T00:32:49;4.20;99.90
7934;DHT22;4012;48.896;9.192;2023-04-03T00:35:15;4.20;99.90
7934;DHT22;4012;48.896;9.192;2023-04-03T00:37:42;4.20;99.90
7934;DHT22;4012;48.896;9.192;2023-04-03T00:40:09;4.20;99.90
7934;DHT22;4012;48.896;9.192;2023-04-03T00:42:36;4.20;99.90
7934;DHT22;4012;48.896;9.192;2023-04-03T00:47:29;4.20;99.90
7934;DHT22;4012;48.896;9.192;2023-04-03T00:49:55;4.20;99.90
7934;DHT22;4012;48.896;9.192;2023-04-03T00:52:25;4.20;99.90
7934;DHT22;4012;48.896;9.192;2023-04-03T00:54:54;4.10;99.90
7934;DHT22;4012;48.896;9.192;2023-04-03T00:57:22;4.10;99.90
7934;DHT22;4012;48.896;9.192;2023-04-03T00:59:56;4.10;99.90
7934;DHT22;4012;48.896;9.192;2023-04-03T01:02:23;4.10;99.90
7934;DHT22;4012;48.896;9.192;2023-04-03T01:04:49;4.10;99.90
7934;DHT22;4012;48.896;9.192;2023-04-03T01:07:23;4.10;99.90
7934;DHT22;4012;48.896;9.192;2023-04-03T01:09:52;4.00;99.90
7934;DHT22;4012;48.896;9.192;2023-04-03T01:12:32;4.00;99.90
7934;DHT22;4012;48.896;9.192;2023-04-03T01:15:02;4.00;99.90
7934;DHT22;4012;48.896;9.192;2023-04-03T01:17:46;4.10;99.90
7934;DHT22;4012;48.896;9.192;2023-04-03T01:23:17;3.90;99.90
7934;DHT22;4012;48.896;9.192;2023-04-03T01:25:51;4.00;99.90
7934;DHT22;4012;48.896;9.192;2023-04-03T01:28:30;3.90;99.90
7934;DHT22;4012;48.896;9.192;2023-04-03T01:33:34;3.90;99.90
7934;DHT22;4012;48.896;9.192;2023-04-03T01:36:00;3.90;99.90
7934;DHT22;4012;48.896;9.192;2023-04-03T01:38:26;3.90;99.90
7934;DHT22;4012;48.896;9.192;2023-04-03T01:40:51;3.90;99.90
7934;DHT22;4012;48.896;9.192;2023-04-03T01:43:17;3.90;99.90
7934;DHT22;4012;48.896;9.192;2023-04-03T01:45:43;3.90;99.90
7934;DHT22;4012;48.896;9.192;2023-04-03T01:48:08;3.90;99.90
7934;DHT22;4012;48.896;9.192;2023-04-03T01:50:34;3.90;99.90
7934;DHT22;4012;48.896;9.192;2023-04-03T01:52:59;3.90;99.90
7934;DHT22;4012;48.896;9.192;2023-04-03T01:55:25;3.90;99.90
7934;DHT22;4012;48.896;9.192;2023-04-03T01:57:51;4.00;99.90
7934;DHT22;4012;48.896;9.192;2023-04-03T02:00:16;4.00;99.90
7934;DHT22;4012;48.896;9.192;2023-04-03T02:02:42;4.10;99.90
7934;DHT22;4012;48.896;9.192;2023-04-03T02:05:08;4.10;99.90
7934;DHT22;4012;48.896;9.192;2023-04-03T02:07:34;4.00;99.90
7934;DHT22;4012;48.896;9.192;2023-04-03T02:09:59;4.00;99.90
7934;DHT22;4012;48.896;9.192;2023-04-03T02:12:25;4.10;99.90
7934;DHT22;4012;48.896;9.192;2023-04-03T02:14:51;4.10;99.90
7934;DHT22;4012;48.896;9.192;2023-04-03T02:17:16;4.10;99.90
7934;DHT22;4012;48.896;9.192;2023-04-03T02:19:42;4.00;99.90
7934;DHT22;4012;48.896;9.192;2023-04-03T02:22:08;3.90;99.90
7934;DHT22;4012;48.896;9.192;2023-04-03T02:24:34;4.00;99.90
7934;DHT22;4012;48.896;9.192;2023-04-03T02:26:59;4.00;99.90
7934;DHT22;4012;48.896;9.192;2023-04-03T02:29:25;3.90;99.90
7934;DHT22;4012;48.896;9.192;2023-04-03T02:31:53;3.90;99.90
7934;DHT22;4012;48.896;9.192;2023-04-03T02:34:19;3.90;99.90
7934;DHT22;4012;48.896;9.192;2023-04-03T02:36:44;3.90;99.90
7934;DHT22;4012;48.896;9.192;2023-04-03T02:39:10;4.00;99.90
7934;DHT22;4012;48.896;9.192;2023-04-03T02:41:36;3.90;99.90
7934;DHT22;4012;48.896;9.192;2023-04-03T02:44:03;3.90;99.90
7934;DHT22;4012;48.896;9.192;2023-04-03T02:46:29;3.90;99.90
7934;DHT22;4012;48.896;9.192;2023-04-03T02:48:54;3.90;99.90
7934;DHT22;4012;48.896;9.192;2023-04-03T02:51:20;3.90;99.90
7934;DHT22;4012;48.896;9.192;2023-04-03T02:53:46;3.90;99.90
7934;DHT22;4012;48.896;9.192;2023-04-03T02:56:11;3.90;99.90
7934;DHT22;4012;48.896;9.192;2023-04-03T02:58:37;3.90;99.90
7934;DHT22;4012;48.896;9.192;2023-04-03T03:01:03;3.90;99.90
7934;DHT22;4012;48.896;9.192;2023-04-03T03:03:28;3.90;99.90
7934;DHT22;4012;48.896;9.192;2023-04-03T03:06:15;3.90;99.90
7934;DHT22;4012;48.896;9.192;2023-04-03T03:08:41;3.90;99.90
7934;DHT22;4012;48.896;9.192;2023-04-03T03:11:08;4.00;99.90
7934;DHT22;4012;48.896;9.192;2023-04-03T03:13:33;3.90;99.90
7934;DHT22;4012;48.896;9.192;2023-04-03T03:15:59;3.90;99.90
7934;DHT22;4012;48.896;9.192;2023-04-03T03:18:25;3.90;99.90
7934;DHT22;4012;48.896;9.192;2023-04-03T03:20:56;3.90;99.90
7934;DHT22;4012;48.896;9.192;2023-04-03T03:23:23;3.90;99.90
7934;DHT22;4012;48.896;9.192;2023-04-03T03:25:55;3.90;99.90
7934;DHT22;4012;48.896;9.192;2023-04-03T03:28:20;3.90;99.90
7934;DHT22;4012;48.896;9.192;2023-04-03T03:30:46;3.90;99.90
7934;DHT22;4012;48.896;9.192;2023-04-03T03:33:12;3.90;99.90
7934;DHT22;4012;48.896;9.192;2023-04-03T03:35:37;3.90;99.90
7934;DHT22;4012;48.896;9.192;2023-04-03T03:38:03;3.90;99.90
7934;DHT22;4012;48.896;9.192;2023-04-03T03:40:28;3.90;99.90
7934;DHT22;4012;48.896;9.192;2023-04-03T03:42:54;3.90;99.90
7934;DHT22;4012;48.896;9.192;2023-04-03T03:45:20;3.90;99.90
7934;DHT22;4012;48.896;9.192;2023-04-03T03:47:45;3.90;99.90
7934;DHT22;4012;48.896;9.192;2023-04-03T03:50:11;4.00;99.90
7934;DHT22;4012;48.896;9.192;2023-04-03T03:52:37;4.00;99.90
7934;DHT22;4012;48.896;9.192;2023-04-03T03:55:04;4.00;99.90
7934;DHT22;4012;48.896;9.192;2023-04-03T03:57:29;4.00;99.90
7934;DHT22;4012;48.896;9.192;2023-04-03T03:59:55;4.00;99.90
7934;DHT22;4012;48.896;9.192;2023-04-03T04:02:21;4.00;99.90
7934;DHT22;4012;48.896;9.192;2023-04-03T04:04:46;4.00;99.90
7934;DHT22;4012;48.896;9.192;2023-04-03T04:07:12;4.00;99.90
7934;DHT22;4012;48.896;9.192;2023-04-03T04:09:38;4.10;99.90
7934;DHT22;4012;48.896;9.192;2023-04-03T04:12:03;4.00;99.90
7934;DHT22;4012;48.896;9.192;2023-04-03T04:14:29;4.00;99.90
7934;DHT22;4012;48.896;9.192;2023-04-03T04:16:55;4.00;99.90
7934;DHT22;4012;48.896;9.192;2023-04-03T04:19:20;4.00;99.90
7934;DHT22;4012;48.896;9.192;2023-04-03T04:21:46;4.00;99.90
7934;DHT22;4012;48.896;9.192;2023-04-03T04:24:12;3.90;99.90
7934;DHT22;4012;48.896;9.192;2023-04-03T04:26:37;4.00;99.90
7934;DHT22;4012;48.896;9.192;2023-04-03T04:29:03;4.00;99.90
7934;DHT22;4012;48.896;9.192;2023-04-03T04:31:28;4.00;99.90
7934;DHT22;4012;48.896;9.192;2023-04-03T04:33:54;4.10;99.90
7934;DHT22;4012;48.896;9.192;2023-04-03T04:36:20;4.10;99.90
7934;DHT22;4012;48.896;9.192;2023-04-03T04:38:45;4.10;99.90
7934;DHT22;4012;48.896;9.192;2023-04-03T04:41:11;4.10;99.90
7934;DHT22;4012;48.896;9.192;2023-04-03T04:43:37;4.10;99.90
7934;DHT22;4012;48.896;9.192;2023-04-03T04:46:05;4.10;99.90
7934;DHT22;4012;48.896;9.192;2023-04-03T04:48:31;4.10;99.90
7934;DHT22;4012;48.896;9.192;2023-04-03T04:50:56;4.00;99.90
7934;DHT22;4012;48.896;9.192;2023-04-03T04:53:22;4.00;99.90
7934;DHT22;4012;48.896;9.192;2023-04-03T04:55:47;4.00;99.90
7934;DHT22;4012;48.896;9.192;2023-04-03T04:58:13;4.00;99.90
7934;DHT22;4012;48.896;9.192;2023-04-03T05:00:39;4.10;99.90
7934;DHT22;4012;48.896;9.192;2023-04-03T05:03:05;4.10;99.90
7934;DHT22;4012;48.896;9.192;2023-04-03T05:05:30;4.10;99.90
7934;DHT22;4012;48.896;9.192;2023-04-03T05:07:56;4.10;99.90
7934;DHT22;4012;48.896;9.192;2023-04-03T05:10:22;4.20;99.90
7934;DHT22;4012;48.896;9.192;2023-04-03T05:12:47;4.10;99.90
7934;DHT22;4012;48.896;9.192;2023-04-03T05:15:13;4.10;99.90
7934;DHT22;4012;48.896;9.192;2023-04-03T05:17:39;4.00;99.90
7934;DHT22;4012;48.896;9.192;2023-04-03T05:20:05;4.10;99.90
7934;DHT22;4012;48.896;9.192;2023-04-03T05:22:31;4.00;99.90
7934;DHT22;4012;48.896;9.192;2023-04-03T05:24:56;4.00;99.90
7934;DHT22;4012;48.896;9.192;2023-04-03T05:27:22;4.00;99.90
7934;DHT22;4012;48.896;9.192;2023-04-03T05:29:49;4.00;99.90
7934;DHT22;4012;48.896;9.192;2023-04-03T05:32:15;4.10;99.90
7934;DHT22;4012;48.896;9.192;2023-04-03T05:34:41;4.10;99.90
7934;DHT22;4012;48.896;9.192;2023-04-03T05:37:07;4.10;99.90
7934;DHT22;4012;48.896;9.192;2023-04-03T05:39:33;4.10;99.90
7934;DHT22;4012;48.896;9.192;2023-04-03T05:41:59;4.00;99.90
7934;DHT22;4012;48.896;9.192;2023-04-03T05:44:25;4.00;99.90
7934;DHT22;4012;48.896;9.192;2023-04-03T05:46:50;4.10;99.90
7934;DHT22;4012;48.896;9.192;2023-04-03T05:49:16;4.00;99.90
7934;DHT22;4012;48.896;9.192;2023-04-03T05:51:41;4.10;99.90
7934;DHT22;4012;48.896;9.192;2023-04-03T05:54:20;4.20;99.90
7934;DHT22;4012;48.896;9.192;2023-04-03T05:56:50;4.30;99.90
7934;DHT22;4012;48.896;9.192;2023-04-03T05:59:17;4.10;99.90
7934;DHT22;4012;48.896;9.192;2023-04-03T06:01:43;4.10;99.90
7934;DHT22;4012;48.896;9.192;2023-04-03T06:04:08;4.20;99.90
7934;DHT22;4012;48.896;9.192;2023-04-03T06:06:54;4.20;99.90
7934;DHT22;4012;48.896;9.192;2023-04-03T06:09:22;4.30;99.90
7934;DHT22;4012;48.896;9.192;2023-04-03T06:11:49;4.30;99.90
7934;DHT22;4012;48.896;9.192;2023-04-03T06:14:15;4.30;99.90
7934;DHT22;4012;48.896;9.192;2023-04-03T06:16:40;4.30;99.90
7934;DHT22;4012;48.896;9.192;2023-04-03T06:19:07;4.40;99.90
7934;DHT22;4012;48.896;9.192;2023-04-03T06:21:33;4.50;99.90
7934;DHT22;4012;48.896;9.192;2023-04-03T06:23:59;4.50;99.90
7934;DHT22;4012;48.896;9.192;2023-04-03T06:26:25;4.50;99.90
7934;DHT22;4012;48.896;9.192;2023-04-03T06:29:00;4.50;99.90
7934;DHT22;4012;48.896;9.192;2023-04-03T06:31:28;4.50;99.90
7934;DHT22;4012;48.896;9.192;2023-04-03T06:33:53;4.60;99.90
7934;DHT22;4012;48.896;9.192;2023-04-03T06:36:19;4.60;99.90
7934;DHT22;4012;48.896;9.192;2023-04-03T06:38:48;4.60;99.90
7934;DHT22;4012;48.896;9.192;2023-04-03T06:41:14;4.50;99.90
7934;DHT22;4012;48.896;9.192;2023-04-03T06:43:40;4.50;99.90
7934;DHT22;4012;48.896;9.192;2023-04-03T06:46:08;4.50;99.90
7934;DHT22;4012;48.896;9.192;2023-04-03T06:48:36;4.30;99.90
7934;DHT22;4012;48.896;9.192;2023-04-03T06:51:01;4.20;99.90
7934;DHT22;4012;48.896;9.192;2023-04-03T06:53:27;4.30;99.90
7934;DHT22;4012;48.896;9.192;2023-04-03T06:55:52;4.30;99.90
7934;DHT22;4012;48.896;9.192;2023-04-03T06:58:18;4.50;99.90
7934;DHT22;4012;48.896;9.192;2023-04-03T07:00:44;4.70;99.90
7934;DHT22;4012;48.896;9.192;2023-04-03T07:03:10;4.60;99.90
7934;DHT22;4012;48.896;9.192;2023-04-03T07:05:36;4.40;99.90
7934;DHT22;4012;48.896;9.192;2023-04-03T07:08:01;4.30;99.90
7934;DHT22;4012;48.896;9.192;2023-04-03T07:10:27;4.30;99.90
7934;DHT22;4012;48.896;9.192;2023-04-03T07:12:52;4.20;99.90
7934;DHT22;4012;48.896;9.192;2023-04-03T07:15:18;4.30;99.90
7934;DHT22;4012;48.896;9.192;2023-04-03T07:17:43;4.50;99.90
7934;DHT22;4012;48.896;9.192;2023-04-03T07:20:09;4.80;99.90
7934;DHT22;4012;48.896;9.192;2023-04-03T07:22:36;4.80;99.90
7934;DHT22;4012;48.896;9.192;2023-04-03T07:25:02;4.50;99.90
7934;DHT22;4012;48.896;9.192;2023-04-03T07:27:28;4.70;99.90
7934;DHT22;4012;48.896;9.192;2023-04-03T07:29:54;4.80;99.90
7934;DHT22;4012;48.896;9.192;2023-04-03T07:32:21;4.80;99.90
7934;DHT22;4012;48.896;9.192;2023-04-03T07:34:46;4.80;99.90
7934;DHT22;4012;48.896;9.192;2023-04-03T07:37:12;5.10;99.90
7934;DHT22;4012;48.896;9.192;2023-04-03T07:39:38;5.50;99.90
7934;DHT22;4012;48.896;9.192;2023-04-03T07:42:03;5.50;99.90
7934;DHT22;4012;48.896;9.192;2023-04-03T07:44:29;5.40;99.90
7934;DHT22;4012;48.896;9.192;2023-04-03T07:46:55;5.80;99.90
7934;DHT22;4012;48.896;9.192;2023-04-03T07:49:21;6.10;99.90
7934;DHT22;4012;48.896;9.192;2023-04-03T07:51:49;6.80;99.90
7934;DHT22;4012;48.896;9.192;2023-04-03T07:54:15;6.90;99.90
7934;DHT22;4012;48.896;9.192;2023-04-03T07:56:41;6.50;99.90
7934;DHT22;4012;48.896;9.192;2023-04-03T07:59:08;6.60;99.90
7934;DHT22;4012;48.896;9.192;2023-04-03T08:01:34;7.00;99.90
7934;DHT22;4012;48.896;9.192;2023-04-03T08:04:00;6.10;99.90
7934;DHT22;4012;48.896;9.192;2023-04-03T08:06:26;6.10;99.90
7934;DHT22;4012;48.896;9.192;2023-04-03T08:08:52;7.10;99.90
7934;DHT22;4012;48.896;9.192;2023-04-03T08:11:18;7.50;99.90
7934;DHT22;4012;48.896;9.192;2023-04-03T08:13:44;7.10;99.90
7934;DHT22;4012;48.896;9.192;2023-04-03T08:16:11;6.80;99.90
7934;DHT22;4012;48.896;9.192;2023-04-03T08:18:37;7.20;99.90
7934;DHT22;4012;48.896;9.192;2023-04-03T08:21:10;7.10;99.90
7934;DHT22;4012;48.896;9.192;2023-04-03T08:23:36;7.80;99.90
7934;DHT22;4012;48.896;9.192;2023-04-03T08:26:21;8.40;99.90
7934;DHT22;4012;48.896;9.192;2023-04-03T08:28:48;8.30;99.90
7934;DHT22;4012;48.896;9.192;2023-04-03T08:31:16;7.00;99.90
7934;DHT22;4012;48.896;9.192;2023-04-03T08:33:42;7.00;99.90
7934;DHT22;4012;48.896;9.192;2023-04-03T08:36:17;6.90;99.90
7934;DHT22;4012;48.896;9.192;2023-04-03T08:38:43;6.80;99.90
7934;DHT22;4012;48.896;9.192;2023-04-03T08:44:15;7.10;99.90
7934;DHT22;4012;48.896;9.192;2023-04-03T08:46:59;7.40;99.90
7934;DHT22;4012;48.896;9.192;2023-04-03T08:49:42;7.80;99.90
7934;DHT22;4012;48.896;9.192;2023-04-03T08:52:19;7.50;99.90
7934;DHT22;4012;48.896;9.192;2023-04-03T08:54:51;7.50;99.90
7934;DHT22;4012;48.896;9.192;2023-04-03T08:57:29;6.80;99.90
7934;DHT22;4012;48.896;9.192;2023-04-03T08:59:58;6.80;99.90
7934;DHT22;4012;48.896;9.192;2023-04-03T09:02:33;6.90;99.90
7934;DHT22;4012;48.896;9.192;2023-04-03T09:04:59;7.80;99.90
7934;DHT22;4012;48.896;9.192;2023-04-03T09:07:39;8.30;99.90
7934;DHT22;4012;48.896;9.192;2023-04-03T09:10:09;7.90;99.90
7934;DHT22;4012;48.896;9.192;2023-04-03T09:12:42;8.00;99.90
7934;DHT22;4012;48.896;9.192;2023-04-03T09:15:21;8.90;99.90
7934;DHT22;4012;48.896;9.192;2023-04-03T09:20:41;7.90;99.90
7934;DHT22;4012;48.896;9.192;2023-04-03T09:26:15;7.70;99.90
7934;DHT22;4012;48.896;9.192;2023-04-03T09:28:42;7.60;99.90
7934;DHT22;4012;48.896;9.192;2023-04-03T09:33:44;7.70;99.90
7934;DHT22;4012;48.896;9.192;2023-04-03T09:36:10;7.80;99.90
7934;DHT22;4012;48.896;9.192;2023-04-03T09:38:36;8.00;99.90
7934;DHT22;4012;48.896;9.192;2023-04-03T09:41:16;8.40;99.90
7934;DHT22;4012;48.896;9.192;2023-04-03T09:43:52;8.30;99.90
7934;DHT22;4012;48.896;9.192;2023-04-03T09:46:28;7.80;99.90
7934;DHT22;4012;48.896;9.192;2023-04-03T09:48:59;7.50;99.90
7934;DHT22;4012;48.896;9.192;2023-04-03T09:51:26;7.00;99.90
7934;DHT22;4012;48.896;9.192;2023-04-03T09:53:53;6.90;99.90
7934;DHT22;4012;48.896;9.192;2023-04-03T09:56:23;6.80;99.90
7934;DHT22;4012;48.896;9.192;2023-04-03T10:01:34;7.10;99.90
7934;DHT22;4012;48.896;9.192;2023-04-03T10:06:34;7.20;99.90
7934;DHT22;4012;48.896;9.192;2023-04-03T10:09:22;7.10;99.90
7934;DHT22;4012;48.896;9.192;2023-04-03T10:14:35;6.80;99.90
7934;DHT22;4012;48.896;9.192;2023-04-03T10:19:52;7.00;99.90
7934;DHT22;4012;48.896;9.192;2023-04-03T10:25:15;7.80;99.90
7934;DHT22;4012;48.896;9.192;2023-04-03T10:30:56;7.90;99.90
7934;DHT22;4012;48.896;9.192;2023-04-03T10:36:17;7.30;99.90
7934;DHT22;4012;48.896;9.192;2023-04-03T10:46:58;7.80;99.90
7934;DHT22;4012;48.896;9.192;2023-04-03T10:49:33;7.40;99.90
7934;DHT22;4012;48.896;9.192;2023-04-03T10:52:22;7.40;99.90
7934;DHT22;4012;48.896;9.192;2023-04-03T10:57:40;7.30;99.90
7934;DHT22;4012;48.896;9.192;2023-04-03T11:00:17;7.10;99.90
7934;DHT22;4012;48.896;9.192;2023-04-03T11:02:50;7.10;99.90
7934;DHT22;4012;48.896;9.192;2023-04-03T11:05:39;7.60;99.90
7934;DHT22;4012;48.896;9.192;2023-04-03T11:08:13;7.60;99.90
7934;DHT22;4012;48.896;9.192;2023-04-03T11:10:43;7.50;99.90
7934;DHT22;4012;48.896;9.192;2023-04-03T11:15:59;7.50;99.90
7934;DHT22;4012;48.896;9.192;2023-04-03T11:18:40;7.30;99.90
7934;DHT22;4012;48.896;9.192;2023-04-03T11:21:14;7.10;99.90
7934;DHT22;4012;48.896;9.192;2023-04-03T11:23:41;6.90;99.90
7934;DHT22;4012;48.896;9.192;2023-04-03T11:26:18;6.70;99.90
7934;DHT22;4012;48.896;9.192;2023-04-03T11:28:46;6.70;99.90
7934;DHT22;4012;48.896;9.192;2023-04-03T11:34:42;7.30;99.90
7934;DHT22;4012;48.896;9.192;2023-04-03T11:39:52;6.80;99.90
7934;DHT22;4012;48.896;9.192;2023-04-03T11:44:45;6.80;99.90
7934;DHT22;4012;48.896;9.192;2023-04-03T11:47:12;6.60;99.90
7934;DHT22;4012;48.896;9.192;2023-04-03T11:50:03;6.80;99.90
7934;DHT22;4012;48.896;9.192;2023-04-03T12:16:05;7.40;99.90
7934;DHT22;4012;48.896;9.192;2023-04-03T12:24:39;7.80;99.90
7934;DHT22;4012;48.896;9.192;2023-04-03T12:27:28;7.70;99.90
7934;DHT22;4012;48.896;9.192;2023-04-03T12:35:30;7.60;99.90
7934;DHT22;4012;48.896;9.192;2023-04-03T12:38:37;7.80;99.90
7934;DHT22;4012;48.896;9.192;2023-04-03T12:44:35;7.90;99.90
7934;DHT22;4012;48.896;9.192;2023-04-03T12:47:19;7.40;99.90
7934;DHT22;4012;48.896;9.192;2023-04-03T12:49:49;7.70;99.90
7934;DHT22;4012;48.896;9.192;2023-04-03T12:52:35;7.80;99.90
7934;DHT22;4012;48.896;9.192;2023-04-03T12:55:03;7.90;99.90
7934;DHT22;4012;48.896;9.192;2023-04-03T12:57:32;8.00;99.90
7934;DHT22;4012;48.896;9.192;2023-04-03T12:59:59;8.00;99.90
7934;DHT22;4012;48.896;9.192;2023-04-03T13:02:30;7.90;99.90
7934;DHT22;4012;48.896;9.192;2023-04-03T13:04:58;7.60;99.90
7934;DHT22;4012;48.896;9.192;2023-04-03T13:07:35;7.70;99.90
7934;DHT22;4012;48.896;9.192;2023-04-03T13:12:45;7.70;99.90
7934;DHT22;4012;48.896;9.192;2023-04-03T13:15:40;7.70;99.90
7934;DHT22;4012;48.896;9.192;2023-04-03T13:18:34;7.70;99.90
7934;DHT22;4012;48.896;9.192;2023-04-03T13:21:15;8.00;99.90
7934;DHT22;4012;48.896;9.192;2023-04-03T13:23:45;7.90;99.90
7934;DHT22;4012;48.896;9.192;2023-04-03T13:26:11;8.00;99.90
7934;DHT22;4012;48.896;9.192;2023-04-03T13:28:40;7.60;99.90
7934;DHT22;4012;48.896;9.192;2023-04-03T13:31:20;7.70;99.90
7934;DHT22;4012;48.896;9.192;2023-04-03T13:34:16;7.90;99.90
7934;DHT22;4012;48.896;9.192;2023-04-03T13:36:59;8.00;99.90
7934;DHT22;4012;48.896;9.192;2023-04-03T13:39:28;8.20;99.90
7934;DHT22;4012;48.896;9.192;2023-04-03T13:41:57;8.30;99.90
7934;DHT22;4012;48.896;9.192;2023-04-03T13:44:28;8.10;99.90
7934;DHT22;4012;48.896;9.192;2023-04-03T13:49:40;8.30;99.90
7934;DHT22;4012;48.896;9.192;2023-04-03T13:52:33;8.20;99.90
7934;DHT22;4012;48.896;9.192;2023-04-03T13:55:17;8.50;99.90
7934;DHT22;4012;48.896;9.192;2023-04-03T13:57:56;8.80;99.90
7934;DHT22;4012;48.896;9.192;2023-04-03T14:05:47;8.60;99.90
7934;DHT22;4012;48.896;9.192;2023-04-03T14:08:12;8.40;99.90
7934;DHT22;4012;48.896;9.192;2023-04-03T14:10:39;8.10;99.90
7934;DHT22;4012;48.896;9.192;2023-04-03T14:13:05;8.00;99.90
7934;DHT22;4012;48.896;9.192;2023-04-03T14:15:31;8.10;99.90
7934;DHT22;4012;48.896;9.192;2023-04-03T14:17:57;8.20;99.90
7934;DHT22;4012;48.896;9.192;2023-04-03T14:20:25;8.10;99.90
7934;DHT22;4012;48.896;9.192;2023-04-03T14:22:52;8.10;99.90
7934;DHT22;4012;48.896;9.192;2023-04-03T14:25:20;8.20;99.90
7934;DHT22;4012;48.896;9.192;2023-04-03T14:27:49;8.20;99.90
7934;DHT22;4012;48.896;9.192;2023-04-03T14:30:30;8.00;99.90
7934;DHT22;4012;48.896;9.192;2023-04-03T14:32:56;7.70;99.90
7934;DHT22;4012;48.896;9.192;2023-04-03T14:35:22;7.50;99.90
7934;DHT22;4012;48.896;9.192;2023-04-03T14:37:49;7.70;99.90
7934;DHT22;4012;48.896;9.192;2023-04-03T14:40:19;7.80;99.90
7934;DHT22;4012;48.896;9.192;2023-04-03T14:42:46;8.10;99.90
7934;DHT22;4012;48.896;9.192;2023-04-03T14:45:14;8.20;99.90
7934;DHT22;4012;48.896;9.192;2023-04-03T14:47:46;8.20;99.90
7934;DHT22;4012;48.896;9.192;2023-04-03T14:50:22;8.10;99.90
7934;DHT22;4012;48.896;9.192;2023-04-03T14:52:50;7.70;99.90
7934;DHT22;4012;48.896;9.192;2023-04-03T14:55:20;7.50;99.90
7934;DHT22;4012;48.896;9.192;2023-04-03T14:57:46;7.20;99.90
7934;DHT22;4012;48.896;9.192;2023-04-03T15:00:14;7.20;99.90
7934;DHT22;4012;48.896;9.192;2023-04-03T15:02:41;7.40;99.90
7934;DHT22;4012;48.896;9.192;2023-04-03T15:05:08;7.70;99.90
7934;DHT22;4012;48.896;9.192;2023-04-03T15:07:37;7.60;99.90
7934;DHT22;4012;48.896;9.192;2023-04-03T15:12:39;8.20;99.90
7934;DHT22;4012;48.896;9.192;2023-04-03T15:15:05;8.30;99.90
7934;DHT22;4012;48.896;9.192;2023-04-03T15:17:31;8.10;99.90
7934;DHT22;4012;48.896;9.192;2023-04-03T15:19:58;7.90;99.90
7934;DHT22;4012;48.896;9.192;2023-04-03T15:22:24;7.80;99.90
7934;DHT22;4012;48.896;9.192;2023-04-03T15:24:49;7.40;99.90
7934;DHT22;4012;48.896;9.192;2023-04-03T15:27:15;7.20;99.90
7934;DHT22;4012;48.896;9.192;2023-04-03T15:29:42;7.10;99.90
7934;DHT22;4012;48.896;9.192;2023-04-03T15:32:09;7.20;99.90
7934;DHT22;4012;48.896;9.192;2023-04-03T15:34:35;7.30;99.90
7934;DHT22;4012;48.896;9.192;2023-04-03T15:37:01;7.40;99.90
7934;DHT22;4012;48.896;9.192;2023-04-03T15:39:27;7.60;99.90
7934;DHT22;4012;48.896;9.192;2023-04-03T15:41:53;7.80;99.90
7934;DHT22;4012;48.896;9.192;2023-04-03T15:44:20;8.10;99.90
7934;DHT22;4012;48.896;9.192;2023-04-03T15:46:46;8.20;99.90
7934;DHT22;4012;48.896;9.192;2023-04-03T15:49:14;8.30;99.90
7934;DHT22;4012;48.896;9.192;2023-04-03T15:51:39;8.30;99.90
7934;DHT22;4012;48.896;9.192;2023-04-03T15:54:05;7.90;99.90
7934;DHT22;4012;48.896;9.192;2023-04-03T15:56:31;7.80;99.90
7934;DHT22;4012;48.896;9.192;2023-04-03T15:58:56;7.70;99.90
7934;DHT22;4012;48.896;9.192;2023-04-03T16:01:22;7.30;99.90
7934;DHT22;4012;48.896;9.192;2023-04-03T16:03:47;7.30;99.90
7934;DHT22;4012;48.896;9.192;2023-04-03T16:06:17;7.20;99.90
7934;DHT22;4012;48.896;9.192;2023-04-03T16:08:44;7.00;99.90
7934;DHT22;4012;48.896;9.192;2023-04-03T16:11:11;7.00;99.90
7934;DHT22;4012;48.896;9.192;2023-04-03T16:13:37;7.00;99.90
7934;DHT22;4012;48.896;9.192;2023-04-03T16:16:04;7.10;99.90
7934;DHT22;4012;48.896;9.192;2023-04-03T16:18:30;7.10;99.90
7934;DHT22;4012;48.896;9.192;2023-04-03T16:20:56;7.30;99.90
7934;DHT22;4012;48.896;9.192;2023-04-03T16:23:22;7.50;99.90
7934;DHT22;4012;48.896;9.192;2023-04-03T16:25:48;7.50;99.90
7934;DHT22;4012;48.896;9.192;2023-04-03T16:28:16;7.60;99.90
7934;DHT22;4012;48.896;9.192;2023-04-03T16:30:44;7.60;99.90
7934;DHT22;4012;48.896;9.192;2023-04-03T16:33:11;7.20;99.90
7934;DHT22;4012;48.896;9.192;2023-04-03T16:35:37;7.00;99.90
7934;DHT22;4012;48.896;9.192;2023-04-03T16:38:03;6.90;99.90
7934;DHT22;4012;48.896;9.192;2023-04-03T16:40:29;6.80;99.90
7934;DHT22;4012;48.896;9.192;2023-04-03T16:42:55;6.70;99.90
7934;DHT22;4012;48.896;9.192;2023-04-03T16:45:20;6.70;99.90
7934;DHT22;4012;48.896;9.192;2023-04-03T16:47:46;6.80;99.90
7934;DHT22;4012;48.896;9.192;2023-04-03T16:50:15;6.80;99.90
7934;DHT22;4012;48.896;9.192;2023-04-03T16:52:41;6.80;99.90
7934;DHT22;4012;48.896;9.192;2023-04-03T16:55:07;6.90;99.90
7934;DHT22;4012;48.896;9.192;2023-04-03T16:57:32;7.00;99.90
7934;DHT22;4012;48.896;9.192;2023-04-03T16:59:58;7.00;99.90
7934;DHT22;4012;48.896;9.192;2023-04-03T17:02:24;7.20;99.90
7934;DHT22;4012;48.896;9.192;2023-04-03T17:04:51;7.30;99.90
7934;DHT22;4012;48.896;9.192;2023-04-03T17:07:18;7.10;99.90
7934;DHT22;4012;48.896;9.192;2023-04-03T17:09:44;7.00;99.90
7934;DHT22;4012;48.896;9.192;2023-04-03T17:12:10;6.90;99.90
7934;DHT22;4012;48.896;9.192;2023-04-03T17:14:35;6.90;99.90
7934;DHT22;4012;48.896;9.192;2023-04-03T17:17:02;6.90;99.90
7934;DHT22;4012;48.896;9.192;2023-04-03T17:19:28;6.80;99.90
7934;DHT22;4012;48.896;9.192;2023-04-03T17:21:54;6.80;99.90
7934;DHT22;4012;48.896;9.192;2023-04-03T17:24:20;6.70;99.90
7934;DHT22;4012;48.896;9.192;2023-04-03T17:26:46;6.70;99.90
7934;DHT22;4012;48.896;9.192;2023-04-03T17:29:11;6.70;99.90
7934;DHT22;4012;48.896;9.192;2023-04-03T17:31:37;6.70;99.90
7934;DHT22;4012;48.896;9.192;2023-04-03T17:34:03;6.70;99.90
7934;DHT22;4012;48.896;9.192;2023-04-03T17:36:30;6.60;99.90
7934;DHT22;4012;48.896;9.192;2023-04-03T17:38:56;6.60;99.90
7934;DHT22;4012;48.896;9.192;2023-04-03T17:41:22;6.50;99.90
7934;DHT22;4012;48.896;9.192;2023-04-03T17:43:48;6.50;99.90
7934;DHT22;4012;48.896;9.192;2023-04-03T17:46:14;6.50;99.90
7934;DHT22;4012;48.896;9.192;2023-04-03T17:48:42;6.50;99.90
7934;DHT22;4012;48.896;9.192;2023-04-03T17:51:12;6.50;99.90
7934;DHT22;4012;48.896;9.192;2023-04-03T17:53:39;6.40;99.90
7934;DHT22;4012;48.896;9.192;2023-04-03T17:56:10;6.50;99.90
7934;DHT22;4012;48.896;9.192;2023-04-03T17:58:36;6.40;99.90
7934;DHT22;4012;48.896;9.192;2023-04-03T18:01:25;6.40;99.90
7934;DHT22;4012;48.896;9.192;2023-04-03T18:03:53;6.30;99.90
7934;DHT22;4012;48.896;9.192;2023-04-03T18:06:21;6.20;99.90
7934;DHT22;4012;48.896;9.192;2023-04-03T18:08:54;6.10;99.90
7934;DHT22;4012;48.896;9.192;2023-04-03T18:11:23;6.10;99.90
7934;DHT22;4012;48.896;9.192;2023-04-03T18:13:52;6.10;99.90
7934;DHT22;4012;48.896;9.192;2023-04-03T18:16:18;6.00;99.90
7934;DHT22;4012;48.896;9.192;2023-04-03T18:18:44;5.90;99.90